Time;durP1;ratioP1;P1;durP2;ratioP2;P2;SDS_P1;SDS_P2;PMS_P1;PMS_P2;Temp;Humidity;BMP_temperature;BMP_pressure;BME280_temperature;BME280_humidity;BME280_pressure;Samples;Min_cycle;Max_cycle;Signal;HPM_P1;HPM_P2
2023/09/09 00:00:11;;;;;;;8.65;6.20;;;;;;;17.67;100.00;100764.25;689036;28;1271;-63
2023/09/09 00:00:34;;;;;;;7.30;6.25;;;;;;;17.67;100.00;100767.75;688724;28;841;-63
2023/09/09 00:00:55;;;;;;;7.60;6.27;;;;;;;17.67;100.00;100770.41;687572;28;2212;-63
2023/09/09 00:01:15;;;;;;;7.70;6.10;;;;;;;17.64;100.00;100767.84;690030;28;1244;-63
2023/09/09 00:01:36;;;;;;;8.38;6.57;;;;;;;17.61;100.00;100767.97;691316;28;1254;-63
2023/09/09 00:01:56;;;;;;;7.47;6.40;;;;;;;17.61;100.00;100761.78;692459;28;2281;-63
2023/09/09 00:02:16;;;;;;;8.15;6.70;;;;;;;17.62;100.00;100767.03;693560;28;1402;-64
2023/09/09 00:02:37;;;;;;;7.93;6.53;;;;;;;17.63;100.00;100762.63;692599;28;1540;-64
2023/09/09 00:02:57;;;;;;;8.02;6.30;;;;;;;17.62;100.00;100760.88;689362;28;4343;-63
2023/09/09 00:03:19;;;;;;;8.70;6.50;;;;;;;17.62;100.00;100760.88;690802;28;1445;-64
2023/09/09 00:03:39;;;;;;;8.80;6.22;;;;;;;17.63;100.00;100768.75;688976;28;1322;-64
2023/09/09 00:04:00;;;;;;;9.03;6.40;;;;;;;17.64;100.00;100762.56;689149;28;1826;-63
2023/09/09 00:04:20;;;;;;;7.63;6.40;;;;;;;17.63;100.00;100766.13;690574;28;1275;-63
2023/09/09 00:04:42;;;;;;;8.43;6.50;;;;;;;17.62;100.00;100768.81;690428;28;1267;-63
2023/09/09 00:05:03;;;;;;;8.13;6.32;;;;;;;17.61;100.00;100762.69;688392;28;1479;-63
2023/09/09 00:05:29;;;;;;;8.05;6.22;;;;;;;17.61;100.00;100767.97;690886;28;1339;-63
2023/09/09 00:05:49;;;;;;;7.95;6.47;;;;;;;17.62;100.00;100767.03;688067;28;4565;-63
2023/09/09 00:06:11;;;;;;;9.33;6.40;;;;;;;17.62;100.00;100768.81;689654;28;1710;-64
2023/09/09 00:06:31;;;;;;;10.50;6.82;;;;;;;17.60;100.00;100763.59;690176;28;1232;-63
2023/09/09 00:06:51;;;;;;;8.20;6.70;;;;;;;17.62;100.00;100771.47;688802;28;1705;-63
2023/09/09 00:07:12;;;;;;;8.50;6.53;;;;;;;17.62;100.00;100767.03;690900;28;1322;-63
2023/09/09 00:07:32;;;;;;;8.20;6.60;;;;;;;17.62;100.00;100767.03;689946;28;1346;-63
2023/09/09 00:07:53;;;;;;;8.60;6.50;;;;;;;17.61;100.00;100770.59;688729;28;1795;-63
2023/09/09 00:08:13;;;;;;;7.43;6.18;;;;;;;17.61;100.00;100775.00;689891;28;1211;-63
2023/09/09 00:08:34;;;;;;;9.30;6.30;;;;;;;17.63;100.00;100768.75;691002;28;1445;-64
2023/09/09 00:08:54;;;;;;;7.93;6.30;;;;;;;17.64;100.00;100772.25;690979;28;4539;-63
2023/09/09 00:09:15;;;;;;;8.30;6.73;;;;;;;17.63;100.00;100763.47;692722;28;1207;-63
2023/09/09 00:09:35;;;;;;;8.35;6.40;;;;;;;17.61;100.00;100773.25;690802;28;1505;-63
2023/09/09 00:09:56;;;;;;;10.32;6.35;;;;;;;17.60;100.00;100768.00;687513;28;1703;-62
2023/09/09 00:10:16;;;;;;;9.47;6.80;;;;;;;17.60;100.00;100776.81;690631;28;1434;-63
2023/09/09 00:10:37;;;;;;;8.57;6.80;;;;;;;17.62;100.00;100772.31;687679;28;1371;-63
2023/09/09 00:10:58;;;;;;;8.45;6.60;;;;;;;17.61;100.00;100767.09;683249;28;1851;-63
2023/09/09 00:11:18;;;;;;;7.80;6.30;;;;;;;17.61;100.00;100775.91;685336;28;1335;-63
2023/09/09 00:11:38;;;;;;;7.73;6.53;;;;;;;17.62;100.00;100774.97;687406;28;4313;-63
2023/09/09 00:11:59;;;;;;;7.80;6.55;;;;;;;17.61;100.00;100778.53;683306;28;1868;-63
2023/09/09 00:12:19;;;;;;;9.73;6.83;;;;;;;17.62;100.00;100776.75;685527;28;1299;-64
2023/09/09 00:12:39;;;;;;;9.07;6.63;;;;;;;17.60;100.00;100773.28;687760;28;1232;-63
2023/09/09 00:13:00;;;;;;;8.93;6.53;;;;;;;17.61;100.00;100769.72;689386;28;1893;-63
2023/09/09 00:13:20;;;;;;;9.77;6.57;;;;;;;17.60;100.00;100774.16;690338;28;1275;-63
2023/09/09 00:13:40;;;;;;;8.50;6.68;;;;;;;17.58;100.00;100770.69;690997;28;1247;-63
2023/09/09 00:14:01;;;;;;;8.57;6.63;;;;;;;17.58;100.00;100773.31;689093;28;1748;-64
2023/09/09 00:14:22;;;;;;;8.10;6.30;;;;;;;17.57;100.00;100771.63;690565;28;1299;-63
2023/09/09 00:14:42;;;;;;;7.43;6.60;;;;;;;17.56;100.00;100772.53;690054;28;4527;-63
2023/09/09 00:15:05;;;;;;;7.35;6.35;;;;;;;17.55;100.00;100765.50;689864;28;1531;-63
2023/09/09 00:15:25;;;;;;;7.57;6.25;;;;;;;17.57;100.00;100779.56;690144;28;1295;-63
2023/09/09 00:15:52;;;;;;;8.00;6.47;;;;;;;17.53;100.00;100770.84;688046;28;961;-63
2023/09/09 00:16:13;;;;;;;8.23;6.25;;;;;;;17.53;100.00;100767.34;685676;28;3611;-63
2023/09/09 00:16:36;;;;;;;8.97;6.60;;;;;;;17.53;100.00;100770.00;687224;28;1220;-63
2023/09/09 00:16:57;;;;;;;7.63;6.70;;;;;;;17.53;100.00;100770.00;686629;28;2228;-64
2023/09/09 00:17:18;;;;;;;7.72;6.50;;;;;;;17.54;100.00;100769.06;687617;28;1576;-63
2023/09/09 00:17:38;;;;;;;7.80;6.40;;;;;;;17.52;100.00;100771.75;688461;28;4313;-63
2023/09/09 00:17:59;;;;;;;7.90;6.50;;;;;;;17.51;100.00;100780.63;686666;28;1730;-63
2023/09/09 00:18:20;;;;;;;8.95;6.90;;;;;;;17.53;100.00;100772.63;686326;28;1959;-63
2023/09/09 00:18:40;;;;;;;8.38;6.57;;;;;;;17.54;100.00;100774.34;687706;28;1327;-63
2023/09/09 00:19:02;;;;;;;9.03;6.60;;;;;;;17.55;100.00;100767.28;686398;28;1874;-63
2023/09/09 00:19:24;;;;;;;9.38;6.55;;;;;;;17.50;100.00;100772.69;687211;28;1238;-63
2023/09/09 00:19:44;;;;;;;7.70;6.20;;;;;;;17.49;100.00;100773.66;687943;28;1243;-63
2023/09/09 00:20:09;;;;;;;7.90;6.43;;;;;;;17.50;100.00;100772.69;689026;28;1706;-63
2023/09/09 00:20:29;;;;;;;8.02;6.35;;;;;;;17.49;100.00;100768.34;689201;28;1163;-63
2023/09/09 00:20:50;;;;;;;7.07;6.13;;;;;;;17.50;100.00;100768.31;690152;28;4545;-63
2023/09/09 00:21:10;;;;;;;7.20;6.47;;;;;;;17.50;100.00;100768.31;687691;28;2328;-63
2023/09/09 00:21:30;;;;;;;7.47;6.63;;;;;;;17.50;100.00;100773.59;690110;28;1251;-63
2023/09/09 00:21:51;;;;;;;7.73;6.60;;;;;;;17.50;100.00;100770.94;690553;28;1410;-64
2023/09/09 00:22:11;;;;;;;7.68;6.50;;;;;;;17.50;100.00;100770.06;690724;28;1555;-63
2023/09/09 00:22:32;;;;;;;7.20;6.30;;;;;;;17.48;100.00;100766.63;689715;28;1337;-63
2023/09/09 00:22:52;;;;;;;7.00;6.25;;;;;;;17.50;100.00;100772.69;689181;28;1510;-63
2023/09/09 00:23:13;;;;;;;7.57;6.60;;;;;;;17.48;100.00;100770.13;689957;28;1319;-63
2023/09/09 00:23:33;;;;;;;9.10;6.32;;;;;;;17.48;100.00;100769.25;690233;28;1339;-64
2023/09/09 00:23:53;;;;;;;8.53;6.43;;;;;;;17.47;100.00;100767.53;689743;28;4252;-63
2023/09/09 00:24:14;;;;;;;7.93;6.60;;;;;;;17.47;100.00;100771.06;692276;28;1321;-63
2023/09/09 00:24:34;;;;;;;9.83;6.77;;;;;;;17.47;100.00;100770.16;692459;28;1429;-63
2023/09/09 00:24:55;;;;;;;8.80;6.30;;;;;;;17.47;100.00;100764.88;692002;28;1787;-63
2023/09/09 00:25:15;;;;;;;7.80;6.17;;;;;;;17.45;100.00;100775.50;693477;28;1409;-63
2023/09/09 00:25:42;;;;;;;8.50;6.40;;;;;;;17.43;100.00;100776.47;690240;28;1413;-63
2023/09/09 00:26:03;;;;;;;7.57;6.20;;;;;;;17.44;100.00;100767.63;688682;28;2142;-63
2023/09/09 00:26:27;;;;;;;7.63;5.93;;;;;;;17.44;100.00;100767.63;690791;28;1224;-63
2023/09/09 00:26:48;;;;;;;7.50;6.20;;;;;;;17.45;100.00;100770.22;688021;28;4299;-63
2023/09/09 00:27:08;;;;;;;8.10;6.47;;;;;;;17.44;100.00;100767.63;686812;28;2223;-63
2023/09/09 00:27:28;;;;;;;7.83;6.90;;;;;;;17.44;100.00;100767.63;689908;28;1267;-64
2023/09/09 00:27:49;;;;;;;7.70;6.60;;;;;;;17.44;100.00;100765.84;692228;28;1426;-63
2023/09/09 00:28:10;;;;;;;7.53;6.30;;;;;;;17.44;100.00;100765.84;689865;28;1752;-63
2023/09/09 00:28:32;;;;;;;8.25;6.47;;;;;;;17.46;100.00;100769.31;689238;28;1399;-63
2023/09/09 00:28:53;;;;;;;8.25;6.57;;;;;;;17.45;100.00;100772.88;686306;28;1742;-63
2023/09/09 00:29:13;;;;;;;8.77;6.27;;;;;;;17.46;100.00;100764.03;688781;28;1426;-63
2023/09/09 00:29:34;;;;;;;8.65;6.55;;;;;;;17.46;100.00;100765.78;687795;28;1295;-64
2023/09/09 00:29:54;;;;;;;7.90;6.37;;;;;;;17.45;100.00;100769.38;685665;28;4683;-64
2023/09/09 00:30:14;;;;;;;7.55;6.75;;;;;;;17.44;100.00;100765.00;688022;28;1288;-63
2023/09/09 00:30:35;;;;;;;8.43;7.00;;;;;;;17.44;100.00;100763.19;690794;28;1208;-63
2023/09/09 00:30:55;;;;;;;7.70;6.45;;;;;;;17.46;100.00;100763.16;689112;28;1306;-63
2023/09/09 00:31:16;;;;;;;8.50;6.20;;;;;;;17.44;100.00;100768.47;690663;28;1235;-63
2023/09/09 00:31:36;;;;;;;8.90;6.57;;;;;;;17.41;100.00;100770.38;690631;28;1223;-63
2023/09/09 00:31:56;;;;;;;8.55;6.40;;;;;;;17.42;100.00;100766.78;690096;28;2540;-63
2023/09/09 00:32:17;;;;;;;7.33;6.10;;;;;;;17.42;100.00;100761.50;692415;28;1465;-63
2023/09/09 00:32:37;;;;;;;8.85;6.50;;;;;;;17.44;100.00;100762.34;690024;28;1350;-63
2023/09/09 00:32:58;;;;;;;7.87;6.73;;;;;;;17.41;100.00;100763.31;686053;28;4459;-63
2023/09/09 00:33:18;;;;;;;7.90;6.60;;;;;;;17.40;100.00;100761.56;686795;28;1296;-63
2023/09/09 00:33:39;;;;;;;7.43;6.30;;;;;;;17.40;100.00;100758.91;687645;28;1295;-63
2023/09/09 00:33:59;;;;;;;7.78;6.65;;;;;;;17.40;100.00;100766.00;680847;28;1117;-63
2023/09/09 00:34:20;;;;;;;8.70;6.70;;;;;;;17.40;100.00;100761.56;678784;29;1425;-63
2023/09/09 00:34:40;;;;;;;7.50;6.40;;;;;;;17.39;100.00;100759.84;679982;29;1072;-63
2023/09/09 00:35:00;;;;;;;8.03;6.33;;;;;;;17.40;100.00;100763.34;678800;29;1197;-63
2023/09/09 00:35:21;;;;;;;7.50;6.13;;;;;;;17.40;100.00;100761.56;682207;29;1350;-64
2023/09/09 00:35:41;;;;;;;7.40;6.22;;;;;;;17.40;100.00;100764.22;682613;28;4485;-63
2023/09/09 00:36:02;;;;;;;8.73;6.43;;;;;;;17.36;100.00;100760.81;684225;28;1879;-63
2023/09/09 00:36:22;;;;;;;8.05;6.13;;;;;;;17.35;100.00;100758.22;687122;28;3229;-63
2023/09/09 00:36:43;;;;;;;7.93;6.17;;;;;;;17.33;100.00;100765.31;687103;28;1334;-63
2023/09/09 00:37:03;;;;;;;8.10;6.50;;;;;;;17.33;100.00;100757.41;686474;28;1747;-64
2023/09/09 00:37:24;;;;;;;7.70;6.40;;;;;;;17.33;100.00;100760.91;690175;28;1290;-63
2023/09/09 00:37:44;;;;;;;8.13;6.53;;;;;;;17.34;100.00;100757.34;690627;28;1580;-64
2023/09/09 00:38:09;;;;;;;8.10;6.80;;;;;;;17.35;100.00;100764.38;687772;28;1109;-63
2023/09/09 00:38:29;;;;;;;8.05;6.45;;;;;;;17.34;100.00;100756.50;689435;28;1914;-63
2023/09/09 00:38:49;;;;;;;7.97;6.73;;;;;;;17.33;100.00;100766.22;688375;28;5714;-63
2023/09/09 00:39:10;;;;;;;8.07;6.63;;;;;;;17.31;100.00;100757.44;684180;28;1302;-63
2023/09/09 00:39:31;;;;;;;7.35;6.47;;;;;;;17.31;100.00;100756.59;682243;29;1228;-63
2023/09/09 00:39:51;;;;;;;7.63;6.25;;;;;;;17.31;100.00;100757.44;683693;28;1342;-63
2023/09/09 00:40:12;;;;;;;7.90;6.53;;;;;;;17.31;100.00;100754.81;682632;28;1880;-63
2023/09/09 00:40:32;;;;;;;8.63;6.50;;;;;;;17.29;100.00;100754.00;679825;29;1245;-63
2023/09/09 00:41:27;;;;;;;8.05;6.40;;;;;;;17.29;100.00;100755.75;680656;28;1458;-63
2023/09/09 00:41:47;;;;;;;8.48;6.32;;;;;;;17.28;100.00;100754.91;682822;28;4594;-63
2023/09/09 00:42:08;;;;;;;7.85;6.40;;;;;;;17.28;100.00;100757.53;681567;29;2303;-63
2023/09/09 00:42:28;;;;;;;7.83;6.23;;;;;;;17.28;100.00;100756.66;682570;28;1299;-64
2023/09/09 00:42:48;;;;;;;8.10;6.40;;;;;;;17.28;100.00;100754.03;684605;28;1313;-63
2023/09/09 00:43:09;;;;;;;8.73;6.72;;;;;;;17.29;100.00;100755.75;681627;28;1734;-63
2023/09/09 00:43:29;;;;;;;7.87;6.40;;;;;;;17.29;100.00;100755.75;680361;29;1250;-65
2023/09/09 00:43:50;;;;;;;7.35;6.30;;;;;;;17.29;100.00;100758.41;683337;28;1300;-63
2023/09/09 00:44:10;;;;;;;7.10;5.90;;;;;;;17.26;100.00;100750.56;682213;28;1174;-63
2023/09/09 00:44:31;;;;;;;7.38;6.22;;;;;;;17.22;100.00;100759.50;685682;28;1346;-63
2023/09/09 00:44:51;;;;;;;8.40;6.50;;;;;;;17.19;100.00;100750.75;687277;28;4360;-63
2023/09/09 00:45:11;;;;;;;7.90;6.53;;;;;;;17.19;100.00;100748.09;687061;28;1935;-63
2023/09/09 00:45:32;;;;;;;8.50;6.53;;;;;;;17.19;100.00;100749.91;689475;28;1256;-64
2023/09/09 00:45:52;;;;;;;8.32;6.47;;;;;;;17.21;100.00;100755.13;690182;28;1298;-63
2023/09/09 00:46:16;;;;;;;9.60;6.33;;;;;;;17.19;100.00;100745.47;690780;28;1263;-63
2023/09/09 00:46:37;;;;;;;7.90;6.20;;;;;;;17.19;100.00;100752.53;688431;28;1498;-63
2023/09/09 00:46:58;;;;;;;8.50;6.23;;;;;;;17.17;100.00;100747.31;686220;28;1851;-63
2023/09/09 00:47:18;;;;;;;7.43;6.38;;;;;;;17.16;100.00;100753.50;688155;28;1541;-63
2023/09/09 00:47:39;;;;;;;7.72;6.43;;;;;;;17.16;100.00;100750.00;689534;28;4496;-63
2023/09/09 00:48:00;;;;;;;7.97;6.53;;;;;;;17.17;100.00;100754.38;688682;28;2354;-63
2023/09/09 00:48:21;;;;;;;7.60;6.00;;;;;;;17.16;100.00;100750.84;690281;28;1325;-63
2023/09/09 00:48:41;;;;;;;7.38;6.20;;;;;;;17.15;100.00;100751.75;689570;28;1255;-63
2023/09/09 00:49:03;;;;;;;7.37;6.37;;;;;;;17.15;100.00;100750.91;688308;28;1465;-63
2023/09/09 00:49:24;;;;;;;7.57;6.50;;;;;;;17.13;100.00;100748.31;690094;28;1409;-63
2023/09/09 00:49:44;;;;;;;8.37;6.80;;;;;;;17.14;100.00;100752.69;689706;28;1246;-63
2023/09/09 00:50:09;;;;;;;7.80;6.47;;;;;;;17.13;100.00;100748.31;687310;28;1797;-63
2023/09/09 00:50:30;;;;;;;8.38;6.50;;;;;;;17.11;100.00;100754.56;687559;28;1267;-63
2023/09/09 00:50:50;;;;;;;8.45;6.45;;;;;;;17.06;100.00;100746.78;686749;28;4528;-63
2023/09/09 00:51:12;;;;;;;7.57;6.30;;;;;;;17.11;100.00;100749.28;685226;28;2302;-63
2023/09/09 00:51:37;;;;;;;7.28;6.22;;;;;;;17.11;100.00;100744.88;687322;28;1154;-63
2023/09/09 00:51:57;;;;;;;8.60;6.20;;;;;;;17.15;100.00;100750.91;684565;28;1913;-63
2023/09/09 00:52:18;;;;;;;8.20;6.30;;;;;;;17.15;100.00;100756.19;685985;28;1198;-63
2023/09/09 00:52:41;;;;;;;7.25;6.32;;;;;;;17.14;100.00;100750.06;690032;28;2168;-63
2023/09/09 00:53:02;;;;;;;8.68;6.40;;;;;;;17.11;100.00;100746.63;690610;28;2344;-64
2023/09/09 00:53:23;;;;;;;7.80;6.40;;;;;;;17.10;100.00;100752.81;690555;28;1936;-63
2023/09/09 00:53:44;;;;;;;8.27;6.60;;;;;;;17.09;100.00;100746.69;689209;28;4547;-63
2023/09/09 00:54:05;;;;;;;7.65;6.43;;;;;;;17.07;100.00;100748.50;685487;28;1708;-63
2023/09/09 00:54:25;;;;;;;8.57;6.45;;;;;;;17.08;100.00;100749.38;685487;28;1260;-63
2023/09/09 00:54:47;;;;;;;8.00;6.40;;;;;;;17.09;100.00;100743.19;685176;28;1334;-63
2023/09/09 00:55:09;;;;;;;7.55;6.35;;;;;;;17.08;100.00;100750.22;683438;28;1471;-63
2023/09/09 00:55:30;;;;;;;7.40;6.40;;;;;;;17.09;100.00;100751.09;685422;28;1232;-63
2023/09/09 00:55:51;;;;;;;7.50;6.70;;;;;;;17.09;100.00;100745.81;683377;28;1388;-63
2023/09/09 00:56:12;;;;;;;7.82;6.90;;;;;;;17.09;100.00;100743.19;686213;28;1841;-63
2023/09/09 00:56:34;;;;;;;7.82;6.53;;;;;;;17.07;100.00;100743.22;684880;28;1311;-63
2023/09/09 00:57:00;;;;;;;7.63;6.45;;;;;;;17.08;100.00;100744.09;683437;28;4252;-63
2023/09/09 00:57:20;;;;;;;8.65;6.55;;;;;;;17.08;100.00;100754.66;682138;28;1032;-63
2023/09/09 00:57:41;;;;;;;8.90;6.60;;;;;;;17.07;100.00;100742.34;681748;28;1261;-63
2023/09/09 00:58:01;;;;;;;7.43;6.50;;;;;;;17.05;100.00;100749.47;681942;28;1735;-63
2023/09/09 00:58:23;;;;;;;9.05;6.85;;;;;;;17.04;100.00;100745.94;682260;28;1968;-63
2023/09/09 00:58:43;;;;;;;9.13;6.55;;;;;;;17.07;100.00;100742.34;685750;28;1260;-63
2023/09/09 00:59:04;;;;;;;9.60;6.57;;;;;;;17.05;100.00;100739.75;685041;28;2376;-63
2023/09/09 00:59:24;;;;;;;9.27;6.50;;;;;;;17.04;100.00;100737.16;689632;28;1192;-63
2023/09/09 00:59:46;;;;;;;7.60;6.68;;;;;;;17.05;100.00;100754.75;689097;28;4770;-63
2023/09/09 01:00:10;;;;;;;8.77;6.75;;;;;;;17.04;100.00;100742.44;686595;28;1720;-63
2023/09/09 01:00:31;;;;;;;8.68;6.82;;;;;;;17.05;100.00;100746.81;690154;28;1298;-63
2023/09/09 01:00:51;;;;;;;8.20;6.53;;;;;;;17.05;100.00;100749.47;691090;28;1291;-63
2023/09/09 01:01:11;;;;;;;8.80;6.50;;;;;;;17.02;100.00;100737.22;687572;28;2468;-63
2023/09/09 01:01:32;;;;;;;9.27;6.57;;;;;;;17.02;100.00;100746.00;689598;28;1290;-63
2023/09/09 01:01:56;;;;;;;8.93;6.50;;;;;;;17.05;100.00;100741.53;681583;28;2032;-63
2023/09/09 01:02:17;;;;;;;8.70;6.43;;;;;;;17.05;100.00;100744.19;682800;28;1284;-63
2023/09/09 01:02:38;;;;;;;8.20;6.80;;;;;;;17.06;100.00;100737.97;679545;29;1660;-63
2023/09/09 01:02:59;;;;;;;8.02;6.70;;;;;;;17.05;100.00;100746.81;680036;28;4661;-63
2023/09/09 01:03:19;;;;;;;8.43;6.60;;;;;;;17.04;100.00;100745.09;681344;29;1063;-63
2023/09/09 01:03:40;;;;;;;8.37;6.60;;;;;;;17.02;100.00;100746.00;680236;28;1268;-63
2023/09/09 01:04:00;;;;;;;8.10;6.53;;;;;;;17.04;100.00;100747.72;683333;28;1964;-64
2023/09/09 01:04:21;;;;;;;8.30;6.83;;;;;;;17.01;100.00;100746.91;683561;28;1268;-63
2023/09/09 01:04:41;;;;;;;8.13;6.93;;;;;;;17.03;100.00;100746.88;684099;28;1197;-63
2023/09/09 01:05:05;;;;;;;7.50;6.50;;;;;;;17.04;100.00;100745.09;683943;28;2351;-63
2023/09/09 01:05:26;;;;;;;7.28;6.47;;;;;;;17.05;100.00;100744.19;685814;28;1356;-63
2023/09/09 01:05:48;;;;;;;8.38;6.50;;;;;;;17.06;100.00;100745.88;684689;28;4699;-63
2023/09/09 01:06:09;;;;;;;8.52;6.22;;;;;;;17.06;100.00;100740.59;685285;28;1910;-63
2023/09/09 01:06:29;;;;;;;8.25;6.38;;;;;;;17.07;100.00;100739.72;684785;28;1272;-63
2023/09/09 01:06:50;;;;;;;8.70;6.53;;;;;;;17.07;100.00;100745.00;686064;28;1273;-63
2023/09/09 01:07:11;;;;;;;8.40;6.57;;;;;;;17.06;100.00;100743.25;683773;28;1775;-63
2023/09/09 01:07:43;;;;;;;8.02;6.45;;;;;;;17.06;100.00;100751.19;684198;28;1169;-63
2023/09/09 01:08:04;;;;;;;8.20;6.70;;;;;;;17.07;100.00;100747.63;683766;28;1944;-63
2023/09/09 01:08:29;;;;;;;7.85;6.50;;;;;;;17.06;100.00;100743.25;686039;28;1165;-63
2023/09/09 01:08:49;;;;;;;7.75;6.60;;;;;;;17.06;100.00;100746.78;688257;28;4705;-64
2023/09/09 01:09:10;;;;;;;8.18;6.53;;;;;;;17.06;100.00;100751.19;691741;28;2467;-63
2023/09/09 01:09:31;;;;;;;9.67;6.27;;;;;;;17.04;100.00;100745.94;693118;28;1215;-63
2023/09/09 01:09:52;;;;;;;9.05;6.60;;;;;;;17.03;100.00;100746.88;692730;28;1347;-63
2023/09/09 01:10:14;;;;;;;7.65;6.60;;;;;;;17.05;100.00;100749.47;692130;28;1057;-63
2023/09/09 01:10:34;;;;;;;7.60;6.43;;;;;;;17.05;100.00;100750.31;692384;28;1782;-63
2023/09/09 01:10:56;;;;;;;8.30;6.53;;;;;;;17.07;100.00;100745.00;690507;28;1769;-63
2023/09/09 01:11:16;;;;;;;9.30;6.35;;;;;;;17.06;100.00;100751.19;686082;28;1616;-63
2023/09/09 01:11:37;;;;;;;7.22;6.22;;;;;;;17.05;100.00;100749.47;687785;28;1489;-63
2023/09/09 01:12:01;;;;;;;7.80;6.73;;;;;;;17.07;100.00;100750.28;682763;28;4630;-63
2023/09/09 01:12:24;;;;;;;8.30;6.60;;;;;;;17.05;100.00;100745.03;684228;28;1260;-63
2023/09/09 01:12:45;;;;;;;8.38;6.22;;;;;;;17.06;100.00;100751.19;683446;28;1500;-63
2023/09/09 01:13:05;;;;;;;7.50;6.25;;;;;;;17.05;100.00;100749.47;683999;28;2379;-63
2023/09/09 01:13:27;;;;;;;8.40;6.45;;;;;;;17.04;100.00;100750.38;686873;28;1304;-63
2023/09/09 01:13:50;;;;;;;9.10;6.47;;;;;;;17.02;100.00;100753.91;684119;28;1268;-63
2023/09/09 01:14:11;;;;;;;8.73;6.40;;;;;;;16.99;100.00;100754.00;683218;28;2358;-63
2023/09/09 01:14:31;;;;;;;6.97;6.18;;;;;;;17.00;100.00;100749.59;681579;29;1205;-63
2023/09/09 01:14:51;;;;;;;8.43;7.18;;;;;;;16.99;100.00;100747.88;683626;28;4505;-63
2023/09/09 01:15:12;;;;;;;8.20;7.07;;;;;;;16.98;100.00;100754.91;682260;28;1751;-63
2023/09/09 01:15:35;;;;;;;8.90;6.60;;;;;;;16.98;100.00;100749.63;683790;28;2181;-63
2023/09/09 01:15:55;;;;;;;9.33;6.70;;;;;;;16.99;100.00;100751.38;682404;28;1775;-63
2023/09/09 01:16:16;;;;;;;11.32;6.65;;;;;;;16.98;100.00;100751.44;684810;28;1398;-63
2023/09/09 01:16:37;;;;;;;9.03;6.53;;;;;;;16.97;100.00;100750.53;684589;28;1229;-63
2023/09/09 01:17:00;;;;;;;7.93;6.68;;;;;;;16.95;100.00;100743.59;682970;28;2028;-64
2023/09/09 01:17:22;;;;;;;8.18;6.63;;;;;;;16.93;100.00;100746.25;679582;29;1514;-63
2023/09/09 01:17:43;;;;;;;7.90;6.05;;;;;;;16.93;100.00;100743.63;681808;29;4442;-63
2023/09/09 01:18:03;;;;;;;7.57;6.00;;;;;;;16.92;100.00;100747.19;680982;28;1846;-63
2023/09/09 01:18:24;;;;;;;8.02;6.15;;;;;;;16.91;100.00;100741.97;682760;28;1918;-63
2023/09/09 01:18:44;;;;;;;7.63;6.03;;;;;;;16.91;100.00;100748.09;684402;28;1288;-63
2023/09/09 01:19:07;;;;;;;7.23;6.00;;;;;;;16.91;100.00;100748.09;683686;28;1698;-63
2023/09/09 01:19:31;;;;;;;8.40;6.15;;;;;;;16.90;100.00;100748.16;686680;28;1315;-63
2023/09/09 01:19:55;;;;;;;8.32;6.10;;;;;;;16.89;100.00;100747.28;683634;28;1276;-63
2023/09/09 01:20:19;;;;;;;7.43;6.15;;;;;;;16.86;100.00;100744.69;682309;28;1659;-63
2023/09/09 01:20:44;;;;;;;7.68;6.47;;;;;;;16.85;100.00;100743.84;682791;28;4317;-63
2023/09/09 01:21:09;;;;;;;7.35;6.20;;;;;;;16.85;100.00;100745.63;683369;28;2173;-63
2023/09/09 01:21:33;;;;;;;8.77;6.50;;;;;;;16.85;100.00;100750.91;684397;28;1249;-63
2023/09/09 01:22:00;;;;;;;8.80;6.50;;;;;;;16.84;100.00;100752.66;680222;29;1408;-63
2023/09/09 01:22:20;;;;;;;9.00;5.95;;;;;;;16.84;100.00;100741.25;683991;28;1235;-63
2023/09/09 01:22:43;;;;;;;7.90;5.90;;;;;;;16.82;100.00;100750.97;684470;28;1220;-63
2023/09/09 01:23:04;;;;;;;8.90;6.53;;;;;;;16.81;100.00;100749.25;683207;28;1580;-63
2023/09/09 01:23:24;;;;;;;7.95;6.18;;;;;;;16.80;100.00;100752.81;685054;28;1236;-63
2023/09/09 01:23:45;;;;;;;8.03;6.30;;;;;;;16.78;100.00;100744.94;685012;28;4365;-63
2023/09/09 01:24:05;;;;;;;7.65;6.22;;;;;;;16.77;100.00;100751.13;683388;28;1802;-63
2023/09/09 01:24:26;;;;;;;8.55;6.40;;;;;;;16.76;100.00;100745.88;685156;28;1331;-63
2023/09/09 01:24:46;;;;;;;8.23;6.43;;;;;;;16.74;100.00;100743.28;685039;28;1346;-63
2023/09/09 01:25:07;;;;;;;8.07;6.38;;;;;;;16.72;100.00;100744.25;686008;28;1520;-63
2023/09/09 01:25:28;;;;;;;7.33;6.33;;;;;;;16.70;100.00;100744.28;687763;28;1442;-63
2023/09/09 01:25:48;;;;;;;7.85;6.95;;;;;;;16.72;100.00;100747.72;684968;28;1279;-63
2023/09/09 01:26:08;;;;;;;8.07;6.53;;;;;;;16.68;100.00;100748.72;686457;28;1731;-63
2023/09/09 01:26:29;;;;;;;8.45;6.15;;;;;;;16.67;100.00;100749.66;686527;28;1324;-63
2023/09/09 01:26:49;;;;;;;8.37;5.90;;;;;;;16.66;100.00;100745.28;686726;28;4399;-63
2023/09/09 01:27:10;;;;;;;7.15;6.10;;;;;;;16.66;100.00;100746.13;687774;28;1783;-63
2023/09/09 01:27:31;;;;;;;8.13;6.37;;;;;;;16.68;100.00;100748.72;689568;28;1332;-63
2023/09/09 01:27:51;;;;;;;8.90;6.95;;;;;;;16.67;100.00;100745.25;685890;28;1911;-63
2023/09/09 01:28:12;;;;;;;8.25;6.43;;;;;;;16.67;100.00;100750.50;685830;28;2527;-63
2023/09/09 01:28:32;;;;;;;7.90;6.50;;;;;;;16.68;100.00;100749.63;686190;28;1587;-63
2023/09/09 01:28:54;;;;;;;7.35;6.38;;;;;;;16.68;100.00;100746.09;689696;28;1323;-63
2023/09/09 01:29:15;;;;;;;7.67;6.27;;;;;;;16.68;100.00;100748.72;685937;28;1854;-63
2023/09/09 01:29:35;;;;;;;9.07;6.38;;;;;;;16.68;100.00;100744.34;685414;28;1299;-63
2023/09/09 01:29:55;;;;;;;8.85;6.60;;;;;;;16.70;100.00;100741.66;685062;28;4493;-64
2023/09/09 01:30:16;;;;;;;7.10;6.30;;;;;;;16.68;100.00;100744.34;682445;29;1400;-63
2023/09/09 01:30:37;;;;;;;7.30;6.20;;;;;;;16.71;100.00;100740.72;682611;29;1451;-63
2023/09/09 01:30:58;;;;;;;7.60;6.50;;;;;;;16.71;100.00;100742.50;681016;28;2309;-63
2023/09/09 01:31:18;;;;;;;8.48;6.50;;;;;;;16.68;100.00;100746.97;684546;28;1593;-66
2023/09/09 01:31:39;;;;;;;7.87;6.70;;;;;;;16.65;100.00;100741.75;686200;28;873;-63
2023/09/09 01:31:59;;;;;;;7.40;6.53;;;;;;;16.65;100.00;100741.75;685752;28;1886;-63
2023/09/09 01:32:19;;;;;;;8.00;6.43;;;;;;;16.68;100.00;100740.81;686596;28;1264;-63
2023/09/09 01:32:40;;;;;;;8.30;6.30;;;;;;;16.68;100.00;100741.69;685465;28;4577;-66
2023/09/09 01:33:00;;;;;;;8.70;6.50;;;;;;;16.67;100.00;100739.97;688636;28;2157;-63
2023/09/09 01:33:22;;;;;;;8.63;6.97;;;;;;;16.69;100.00;100738.13;687383;28;2075;-64
2023/09/09 01:33:43;;;;;;;8.30;6.60;;;;;;;16.71;100.00;100734.59;687845;28;1292;-63
2023/09/09 01:34:03;;;;;;;7.83;6.40;;;;;;;16.69;100.00;100738.13;681645;28;1793;-64
2023/09/09 01:34:24;;;;;;;7.60;6.50;;;;;;;16.71;100.00;100735.44;683692;28;1256;-63
2023/09/09 01:34:44;;;;;;;8.47;6.80;;;;;;;16.70;100.00;100749.56;685052;28;1500;-63
2023/09/09 01:35:05;;;;;;;8.75;6.90;;;;;;;16.71;100.00;100737.22;683171;28;1685;-63
2023/09/09 01:35:25;;;;;;;8.63;6.40;;;;;;;16.71;100.00;100748.63;684265;28;1280;-63
2023/09/09 01:35:46;;;;;;;8.67;6.30;;;;;;;16.69;100.00;100743.41;685944;28;4575;-63
2023/09/09 01:36:07;;;;;;;8.63;6.75;;;;;;;16.68;100.00;100741.69;686269;28;1874;-65
2023/09/09 01:36:28;;;;;;;8.50;7.05;;;;;;;16.67;100.00;100747.03;686297;28;3080;-63
2023/09/09 01:36:48;;;;;;;8.27;6.43;;;;;;;16.66;100.00;100747.94;682204;28;1280;-63
2023/09/09 01:37:09;;;;;;;7.33;6.30;;;;;;;16.69;100.00;100740.75;682499;28;1847;-63
2023/09/09 01:37:29;;;;;;;7.75;6.88;;;;;;;16.69;100.00;100740.75;683921;28;1303;-63
2023/09/09 01:37:50;;;;;;;7.80;6.80;;;;;;;16.71;100.00;100740.72;683412;28;1292;-63
2023/09/09 01:38:11;;;;;;;7.67;6.87;;;;;;;16.71;100.00;100739.88;682570;28;1820;-63
2023/09/09 01:38:34;;;;;;;8.77;6.95;;;;;;;16.69;100.00;100747.84;684109;28;1906;-63
2023/09/09 01:38:54;;;;;;;7.78;6.50;;;;;;;16.72;100.00;100746.88;680711;28;5923;-63
2023/09/09 01:39:15;;;;;;;7.75;6.45;;;;;;;16.68;100.00;100741.69;684266;28;1731;-63
2023/09/09 01:39:36;;;;;;;7.43;6.60;;;;;;;16.68;100.00;100746.09;688226;28;1235;-63
2023/09/09 01:39:56;;;;;;;9.75;6.80;;;;;;;16.68;100.00;100740.81;688298;28;1485;-63